createdAt,value
2023-05-18T00:00:28.219Z,28.50
2023-05-18T00:02:58.432Z,28.60
2023-05-18T00:05:26.209Z,28.70
2023-05-18T00:07:54.247Z,28.80
2023-05-18T00:10:21.927Z,28.90
2023-05-18T00:12:49.529Z,28.90
2023-05-18T00:15:17.181Z,29.00
2023-05-18T00:17:46.727Z,29.10
2023-05-18T00:20:15.503Z,29.20
2023-05-18T00:22:44.985Z,29.20
2023-05-18T00:25:12.947Z,29.30
2023-05-18T00:27:41.034Z,29.30
2023-05-18T00:30:09.883Z,29.40
2023-05-18T00:32:38.875Z,29.50
2023-05-18T00:35:07.146Z,29.60
2023-05-18T00:37:34.842Z,29.60
2023-05-18T00:40:02.507Z,29.70
2023-05-18T00:42:31.304Z,29.80
2023-05-18T00:44:59.177Z,29.90
2023-05-18T00:47:27.856Z,29.90
2023-05-18T00:50:05.322Z,30.00
2023-05-18T00:52:34.003Z,30.10
2023-05-18T00:55:02.210Z,30.20
2023-05-18T00:57:30.737Z,30.30
2023-05-18T00:59:59.235Z,30.40
2023-05-18T01:02:30.650Z,30.50
2023-05-18T01:05:00.897Z,30.50
2023-05-18T01:07:28.682Z,30.60
2023-05-18T01:09:58.628Z,30.70
2023-05-18T01:15:32.968Z,30.90
2023-05-18T01:18:22.703Z,31.10
2023-05-18T01:23:54.115Z,31.20
2023-05-18T01:26:30.323Z,31.30
2023-05-18T01:29:10.315Z,31.30
2023-05-18T01:31:38.249Z,31.40
2023-05-18T01:34:06.781Z,31.50
2023-05-18T01:36:34.554Z,31.50
2023-05-18T01:39:03.776Z,31.70
2023-05-18T01:41:38.233Z,31.80
2023-05-18T01:44:19.583Z,31.80
2023-05-18T01:46:56.546Z,31.90
2023-05-18T01:49:30.503Z,32.00
2023-05-18T01:51:59.116Z,32.00
2023-05-18T01:54:29.893Z,32.20
2023-05-18T01:56:59.525Z,32.20
2023-05-18T01:59:28.129Z,32.30
2023-05-18T02:02:06.273Z,32.40
2023-05-18T02:04:35.666Z,32.50
2023-05-18T02:07:03.454Z,32.60
2023-05-18T02:09:32.351Z,32.70
2023-05-18T02:11:59.979Z,32.70
2023-05-18T02:14:28.399Z,32.80
2023-05-18T02:16:57.832Z,32.90
2023-05-18T02:19:25.718Z,32.90
2023-05-18T02:21:53.486Z,33.00
2023-05-18T02:24:23.571Z,33.10
2023-05-18T02:26:52.049Z,33.20
2023-05-18T02:29:20.813Z,33.30
2023-05-18T02:31:48.888Z,33.40
2023-05-18T02:34:17.709Z,33.40
2023-05-18T02:36:46.541Z,33.50
2023-05-18T02:39:14.807Z,33.50
2023-05-18T02:41:42.570Z,33.50
2023-05-18T02:44:13.603Z,33.60
2023-05-18T02:46:41.186Z,33.60
2023-05-18T02:49:10.540Z,33.60
2023-05-18T02:51:38.374Z,33.70
2023-05-18T02:54:06.325Z,33.80
2023-05-18T02:56:37.078Z,33.90
2023-05-18T02:59:06.064Z,33.90
2023-05-18T03:01:38.230Z,34.00
2023-05-18T03:04:06.033Z,34.10
2023-05-18T03:06:33.983Z,34.20
2023-05-18T03:09:01.797Z,34.20
2023-05-18T03:11:29.930Z,34.30
2023-05-18T03:13:57.836Z,34.30
2023-05-18T03:16:28.892Z,34.30
2023-05-18T03:18:59.955Z,34.40
2023-05-18T03:21:34.036Z,34.40
2023-05-18T03:24:01.709Z,34.50
2023-05-18T03:26:32.693Z,34.60
2023-05-18T03:29:05.372Z,34.60
2023-05-18T03:31:32.986Z,34.70
2023-05-18T03:34:00.647Z,34.70
2023-05-18T03:36:31.409Z,34.80
2023-05-18T03:38:59.924Z,34.80
2023-05-18T03:44:42.919Z,34.90
2023-05-18T03:47:11.925Z,34.90
2023-05-18T03:49:39.542Z,34.90
2023-05-18T03:52:12.519Z,34.90
2023-05-18T03:54:43.048Z,34.90
2023-05-18T03:57:11.542Z,34.90
2023-05-18T03:59:39.436Z,35.00
2023-05-18T04:02:10.136Z,35.00
2023-05-18T04:04:53.365Z,35.00
2023-05-18T04:07:24.672Z,35.10
2023-05-18T04:09:52.983Z,35.10
2023-05-18T04:12:20.996Z,35.10
2023-05-18T04:14:51.516Z,35.20
2023-05-18T04:17:22.623Z,35.20
2023-05-18T04:19:51.718Z,35.20
2023-05-18T04:22:19.352Z,35.30
2023-05-18T04:24:48.055Z,35.30
2023-05-18T04:27:18.648Z,35.40
2023-05-18T04:29:47.683Z,35.30
2023-05-18T04:32:15.558Z,35.30
2023-05-18T04:34:43.357Z,35.50
2023-05-18T04:37:13.757Z,35.40
2023-05-18T04:39:42.565Z,35.50
2023-05-18T04:42:10.970Z,35.50
2023-05-18T04:44:39.454Z,35.60
2023-05-18T04:47:08.740Z,35.60
2023-05-18T04:49:37.247Z,35.60
2023-05-18T04:52:06.937Z,35.70
2023-05-18T04:54:40.247Z,35.70
2023-05-18T04:57:08.124Z,35.80
2023-05-18T04:59:37.510Z,35.80
2023-05-18T05:02:05.236Z,35.80
2023-05-18T05:04:34.130Z,35.90
2023-05-18T05:07:05.653Z,36.00
2023-05-18T05:09:33.371Z,36.00
2023-05-18T05:12:02.120Z,36.10
2023-05-18T05:14:36.280Z,36.10
2023-05-18T05:17:05.119Z,36.20
2023-05-18T05:19:34.759Z,36.20
2023-05-18T05:22:02.605Z,36.20
2023-05-18T05:24:32.492Z,36.20
2023-05-18T05:27:01.071Z,36.30
2023-05-18T05:29:29.020Z,36.20
2023-05-18T05:31:57.734Z,36.30
2023-05-18T05:34:25.457Z,36.30
2023-05-18T05:36:55.083Z,36.30
2023-05-18T05:39:23.073Z,36.40
2023-05-18T05:41:50.769Z,36.30
2023-05-18T05:44:18.459Z,36.30
2023-05-18T05:46:52.659Z,36.30
2023-05-18T05:49:21.009Z,36.30
2023-05-18T05:51:52.211Z,36.30
2023-05-18T05:54:24.058Z,36.30
2023-05-18T05:56:52.393Z,36.40
2023-05-18T05:59:23.246Z,36.40
2023-05-18T06:01:54.396Z,36.40
2023-05-18T06:04:22.316Z,36.40
2023-05-18T06:06:56.073Z,36.50
2023-05-18T06:09:24.128Z,36.50
2023-05-18T06:11:53.185Z,36.60
2023-05-18T06:14:21.576Z,36.60
2023-05-18T06:16:49.295Z,36.70
2023-05-18T06:19:17.086Z,36.70
2023-05-18T06:21:45.056Z,36.80
2023-05-18T06:24:12.650Z,36.90
2023-05-18T06:29:25.669Z,37.00
2023-05-18T06:31:55.750Z,36.90
2023-05-18T06:34:25.124Z,37.00
2023-05-18T06:36:53.532Z,37.00
2023-05-18T06:39:21.506Z,37.00
2023-05-18T06:41:54.919Z,36.90
2023-05-18T06:44:22.674Z,36.90
2023-05-18T06:46:50.484Z,36.90
2023-05-18T06:49:18.094Z,36.80
2023-05-18T06:51:46.556Z,36.80
2023-05-18T06:54:14.546Z,36.70
2023-05-18T06:56:42.169Z,36.70
2023-05-18T06:59:09.844Z,36.70
2023-05-18T07:01:38.658Z,36.70
2023-05-18T07:04:06.724Z,36.70
2023-05-18T07:06:34.456Z,36.60
2023-05-18T07:09:04.092Z,36.70
2023-05-18T07:11:37.178Z,36.60
2023-05-18T07:14:04.928Z,36.70
2023-05-18T07:16:32.639Z,36.70
2023-05-18T07:19:02.082Z,36.70
2023-05-18T07:21:29.910Z,36.80
2023-05-18T07:24:00.682Z,36.80
2023-05-18T07:26:28.594Z,36.70
2023-05-18T07:28:57.703Z,36.70
2023-05-18T07:31:25.438Z,36.70
2023-05-18T07:33:53.472Z,36.70
2023-05-18T07:36:21.537Z,36.70
2023-05-18T07:38:55.153Z,36.70
2023-05-18T07:41:24.152Z,36.80
2023-05-18T07:43:51.894Z,36.80
2023-05-18T07:46:19.668Z,36.90
2023-05-18T07:48:47.538Z,37.00
2023-05-18T07:51:15.304Z,37.00
2023-05-18T07:53:50.392Z,37.00
2023-05-18T07:56:18.382Z,37.00
2023-05-18T07:58:49.000Z,37.10
2023-05-18T08:01:17.534Z,37.10
2023-05-18T08:03:45.318Z,37.10
2023-05-18T08:06:13.064Z,37.20
2023-05-18T08:08:53.605Z,37.20
2023-05-18T08:11:23.596Z,37.20
2023-05-18T08:13:51.265Z,37.20
2023-05-18T08:16:19.107Z,37.20
2023-05-18T08:18:47.284Z,37.30
2023-05-18T08:21:17.257Z,37.30
2023-05-18T08:23:44.947Z,37.30
2023-05-18T08:26:13.928Z,37.30
2023-05-18T08:28:42.333Z,37.30
2023-05-18T08:31:09.966Z,37.20
2023-05-18T08:33:37.677Z,37.30
2023-05-18T08:36:05.362Z,37.30
2023-05-18T08:38:35.636Z,37.30
2023-05-18T08:41:07.933Z,37.30
2023-05-18T08:43:38.567Z,37.30
2023-05-18T08:46:12.065Z,37.30
2023-05-18T08:48:44.101Z,37.20
2023-05-18T08:51:12.605Z,37.20
2023-05-18T08:53:43.489Z,37.20
2023-05-18T08:56:11.757Z,37.10
2023-05-18T08:58:44.613Z,37.10
2023-05-18T09:01:12.338Z,37.10
2023-05-18T09:03:40.059Z,37.10
2023-05-18T09:06:09.253Z,37.10
2023-05-18T09:08:38.233Z,37.10
2023-05-18T09:11:06.406Z,37.10
2023-05-18T09:13:36.782Z,37.10
2023-05-18T09:16:04.741Z,37.10
2023-05-18T09:18:32.395Z,37.10
2023-05-18T09:21:00.149Z,37.00
2023-05-18T09:23:31.388Z,37.00
2023-05-18T09:25:59.664Z,37.00
2023-05-18T09:28:36.090Z,37.00
2023-05-18T09:31:12.869Z,36.90
2023-05-18T09:33:40.946Z,36.90
2023-05-18T09:36:09.436Z,36.90
2023-05-18T09:38:43.611Z,36.90
2023-05-18T09:41:12.772Z,36.90
2023-05-18T09:43:41.385Z,36.90
2023-05-18T09:46:09.887Z,36.90
2023-05-18T09:48:43.285Z,36.90
2023-05-18T09:51:16.418Z,36.90
2023-05-18T09:53:54.413Z,36.90
2023-05-18T09:56:25.619Z,36.80
2023-05-18T09:58:56.597Z,36.80
2023-05-18T10:01:24.769Z,36.70
2023-05-18T10:03:53.577Z,36.70
2023-05-18T10:06:27.860Z,36.60
2023-05-18T10:08:58.502Z,36.60
2023-05-18T10:11:27.857Z,36.60
2023-05-18T10:13:58.377Z,36.50
2023-05-18T10:16:26.890Z,36.50
2023-05-18T10:18:55.314Z,36.40
2023-05-18T10:21:24.940Z,36.40
2023-05-18T10:23:54.030Z,36.40
2023-05-18T10:26:23.554Z,36.30
2023-05-18T10:28:54.123Z,36.20
2023-05-18T10:31:23.214Z,36.10
2023-05-18T10:33:52.100Z,36.10
2023-05-18T10:36:20.092Z,36.10
2023-05-18T10:38:47.949Z,36.00
2023-05-18T10:41:15.755Z,35.90
2023-05-18T10:43:45.738Z,35.80
2023-05-18T10:46:16.298Z,35.80
2023-05-18T10:51:17.131Z,35.70
2023-05-18T10:53:48.852Z,35.60
2023-05-18T10:56:17.650Z,35.50
2023-05-18T10:58:46.129Z,35.50
2023-05-18T11:01:14.238Z,35.40
2023-05-18T11:03:42.502Z,35.30
2023-05-18T11:06:12.205Z,35.30
2023-05-18T11:08:57.619Z,35.30
2023-05-18T11:11:31.098Z,35.20
2023-05-18T11:14:02.756Z,35.10
2023-05-18T11:16:35.124Z,35.10
2023-05-18T11:19:13.861Z,35.10
2023-05-18T11:21:42.486Z,35.00
2023-05-18T11:24:23.959Z,35.00
2023-05-18T11:26:53.897Z,35.00
2023-05-18T11:29:23.662Z,35.00
2023-05-18T11:31:52.610Z,35.00
2023-05-18T11:34:39.410Z,35.00
2023-05-18T11:37:10.521Z,35.00
2023-05-18T11:39:47.898Z,35.00
2023-05-18T11:42:20.498Z,35.00
2023-05-18T11:44:56.169Z,34.90
2023-05-18T11:47:30.927Z,34.90
2023-05-18T11:49:59.304Z,34.90
2023-05-18T11:52:27.317Z,34.90
2023-05-18T11:55:01.616Z,34.90
2023-05-18T11:57:35.807Z,34.90
2023-05-18T12:00:08.916Z,34.80
2023-05-18T12:02:36.760Z,34.80
2023-05-18T12:05:08.637Z,34.70
2023-05-18T12:07:37.556Z,34.70
2023-05-18T12:10:07.996Z,34.70
2023-05-18T12:12:35.784Z,34.60
2023-05-18T12:15:06.340Z,34.60
2023-05-18T12:17:41.661Z,34.50
2023-05-18T12:20:12.118Z,34.50
2023-05-18T12:22:40.912Z,34.40
2023-05-18T12:25:09.663Z,34.30
2023-05-18T12:27:41.044Z,34.30
2023-05-18T12:30:12.829Z,34.30
2023-05-18T12:32:41.145Z,34.30
2023-05-18T12:35:09.221Z,34.20
2023-05-18T12:37:47.549Z,34.20
2023-05-18T12:40:16.905Z,34.20
2023-05-18T12:42:54.943Z,34.20
2023-05-18T12:45:33.214Z,34.10
2023-05-18T12:48:08.740Z,34.10
2023-05-18T12:50:37.538Z,34.10
2023-05-18T12:53:06.034Z,34.10
2023-05-18T12:55:33.998Z,34.10
2023-05-18T12:58:02.353Z,34.10
2023-05-18T13:00:37.258Z,34.00
2023-05-18T13:03:12.647Z,34.00
2023-05-18T13:05:44.441Z,34.00
2023-05-18T13:08:17.527Z,34.00
2023-05-18T13:10:45.565Z,33.90
2023-05-18T13:13:17.286Z,33.90
2023-05-18T13:15:44.938Z,33.90
2023-05-18T13:18:13.790Z,33.90
2023-05-18T13:20:51.819Z,33.90
2023-05-18T13:23:21.285Z,33.80
2023-05-18T13:25:50.283Z,33.80
2023-05-18T13:28:19.776Z,33.80
2023-05-18T13:30:49.726Z,33.80
2023-05-18T13:33:20.219Z,33.80
2023-05-18T13:35:50.086Z,33.90
2023-05-18T13:38:18.796Z,33.90
2023-05-18T13:40:47.247Z,33.80
2023-05-18T13:43:14.847Z,33.80
2023-05-18T13:45:42.889Z,33.80
2023-05-18T13:48:11.497Z,33.80
2023-05-18T13:50:40.467Z,33.80
2023-05-18T13:53:08.993Z,33.70
2023-05-18T13:55:37.240Z,33.70
2023-05-18T13:58:04.912Z,33.70
2023-05-18T14:00:34.511Z,33.70
2023-05-18T14:03:03.725Z,33.70
2023-05-18T14:05:31.382Z,33.70
2023-05-18T14:07:59.739Z,33.70
2023-05-18T14:10:27.318Z,33.60
2023-05-18T14:12:54.999Z,33.60
2023-05-18T14:15:23.416Z,33.50
2023-05-18T14:17:51.087Z,33.50
2023-05-18T14:20:20.714Z,33.50
2023-05-18T14:22:49.243Z,33.50
2023-05-18T14:25:18.055Z,33.50
2023-05-18T14:27:45.942Z,33.40
2023-05-18T14:30:14.710Z,33.40
2023-05-18T14:32:43.191Z,33.30
2023-05-18T14:35:11.699Z,33.30
2023-05-18T14:37:40.059Z,33.30
2023-05-18T14:40:08.370Z,33.20
2023-05-18T14:42:37.421Z,33.20
2023-05-18T14:45:06.131Z,33.10
2023-05-18T14:47:33.761Z,33.10
2023-05-18T14:50:01.609Z,33.00
2023-05-18T14:52:29.379Z,33.00
2023-05-18T14:54:56.953Z,33.00
2023-05-18T14:57:26.629Z,33.00
2023-05-18T14:59:54.664Z,32.90
2023-05-18T15:02:22.281Z,32.90
2023-05-18T15:04:49.876Z,32.80
2023-05-18T15:07:17.948Z,32.80
2023-05-18T15:09:46.529Z,32.80
2023-05-18T15:12:14.930Z,32.80
2023-05-18T15:14:42.550Z,32.70
2023-05-18T15:17:11.001Z,32.70
2023-05-18T15:19:38.578Z,32.70
2023-05-18T15:22:06.208Z,32.70
2023-05-18T15:24:33.849Z,32.60
2023-05-18T15:27:04.229Z,32.60
2023-05-18T15:29:31.869Z,32.60
2023-05-18T15:31:59.542Z,32.60
2023-05-18T15:34:27.283Z,32.60
2023-05-18T15:36:55.710Z,32.60
2023-05-18T15:39:24.077Z,32.50
2023-05-18T15:41:52.054Z,32.50
2023-05-18T15:44:19.887Z,32.40
2023-05-18T15:46:48.302Z,32.40
2023-05-18T15:49:16.782Z,32.40
2023-05-18T15:51:45.247Z,32.40
2023-05-18T15:54:12.858Z,32.30
2023-05-18T15:56:41.391Z,32.30
2023-05-18T15:59:08.972Z,32.30
2023-05-18T16:01:37.463Z,32.20
2023-05-18T16:04:05.334Z,32.20
2023-05-18T16:06:33.756Z,32.20
2023-05-18T16:09:01.300Z,32.10
2023-05-18T16:11:29.000Z,32.10
2023-05-18T16:13:57.393Z,32.10
2023-05-18T16:16:26.436Z,32.10
2023-05-18T16:18:54.543Z,32.10
2023-05-18T16:21:23.012Z,32.00
2023-05-18T16:23:50.621Z,32.00
2023-05-18T16:26:19.040Z,31.90
2023-05-18T16:28:46.698Z,31.90
2023-05-18T16:31:14.534Z,31.90
2023-05-18T16:33:42.128Z,31.90
2023-05-18T16:36:09.917Z,31.90
2023-05-18T16:38:38.247Z,31.80
2023-05-18T16:41:06.853Z,31.80
2023-05-18T16:43:35.783Z,31.80
2023-05-18T16:46:04.182Z,31.80
2023-05-18T16:48:31.864Z,31.80
2023-05-18T16:50:59.420Z,31.70
2023-05-18T16:53:27.074Z,31.70
2023-05-18T16:55:54.908Z,31.70
2023-05-18T16:58:23.640Z,31.70
2023-05-18T17:00:51.215Z,31.70
2023-05-18T17:03:19.802Z,31.70
2023-05-18T17:05:48.621Z,31.60
2023-05-18T17:08:16.406Z,31.70
2023-05-18T17:10:44.051Z,31.60
2023-05-18T17:13:12.486Z,31.60
2023-05-18T17:15:40.504Z,31.60
2023-05-18T17:18:08.162Z,31.60
2023-05-18T17:20:35.769Z,31.60
2023-05-18T17:23:04.169Z,31.60
2023-05-18T17:25:31.718Z,31.50
2023-05-18T17:27:59.308Z,31.60
2023-05-18T17:30:26.913Z,31.50
2023-05-18T17:32:55.781Z,31.50
2023-05-18T17:35:23.388Z,31.50
2023-05-18T17:37:52.053Z,31.50
2023-05-18T17:40:19.617Z,31.40
2023-05-18T17:42:47.135Z,31.40
2023-05-18T17:45:15.544Z,31.40
2023-05-18T17:47:43.899Z,31.40
2023-05-18T17:50:13.820Z,31.40
2023-05-18T17:52:41.675Z,31.30
2023-05-18T17:55:10.597Z,31.40
2023-05-18T17:57:45.986Z,31.30
2023-05-18T18:00:14.378Z,31.30
2023-05-18T18:02:42.000Z,31.30
2023-05-18T18:05:09.865Z,31.30
2023-05-18T18:07:38.406Z,31.30
2023-05-18T18:10:06.921Z,31.30
2023-05-18T18:12:35.269Z,31.20
2023-05-18T18:15:02.897Z,31.20
2023-05-18T18:17:31.040Z,31.20
2023-05-18T18:19:59.677Z,31.10
2023-05-18T18:22:28.121Z,31.10
2023-05-18T18:24:55.836Z,31.10
2023-05-18T18:27:24.173Z,31.10
2023-05-18T18:29:52.072Z,31.10
2023-05-18T18:32:19.661Z,31.00
2023-05-18T18:34:48.011Z,31.00
2023-05-18T18:37:16.401Z,31.00
2023-05-18T18:39:44.207Z,31.00
2023-05-18T18:42:12.637Z,30.90
2023-05-18T18:44:40.427Z,30.90
2023-05-18T18:47:08.801Z,30.80
2023-05-18T18:49:36.383Z,30.80
2023-05-18T18:52:04.147Z,30.80
2023-05-18T18:54:31.780Z,30.70
2023-05-18T18:56:59.418Z,30.70
2023-05-18T18:59:27.052Z,30.70
2023-05-18T19:01:54.703Z,30.70
2023-05-18T19:04:22.350Z,30.70
2023-05-18T19:06:49.982Z,30.60
2023-05-18T19:09:18.343Z,30.60
2023-05-18T19:11:46.021Z,30.60
2023-05-18T19:14:13.913Z,30.60
2023-05-18T19:16:41.671Z,30.50
2023-05-18T19:19:10.097Z,30.50
2023-05-18T19:21:39.082Z,30.50
2023-05-18T19:24:07.640Z,30.50
2023-05-18T19:26:35.262Z,30.50
2023-05-18T19:29:02.929Z,30.40
2023-05-18T19:31:32.951Z,30.40
2023-05-18T19:34:00.912Z,30.30
2023-05-18T19:36:28.640Z,30.30
2023-05-18T19:38:56.377Z,30.20
2023-05-18T19:41:25.026Z,30.20
2023-05-18T19:43:52.680Z,30.20
2023-05-18T19:46:20.272Z,30.10
2023-05-18T19:48:47.962Z,30.00
2023-05-18T19:51:16.391Z,29.90
2023-05-18T19:53:44.961Z,29.90
2023-05-18T19:56:12.530Z,29.80
2023-05-18T19:58:40.125Z,29.90
2023-05-18T20:01:10.337Z,29.80
2023-05-18T20:03:40.208Z,29.80
2023-05-18T20:06:10.217Z,29.70
2023-05-18T20:08:39.089Z,29.70
2023-05-18T20:11:07.451Z,29.70
2023-05-18T20:13:35.067Z,29.60
2023-05-18T20:16:05.998Z,29.60
2023-05-18T20:18:36.051Z,29.60
2023-05-18T20:21:03.725Z,29.60
2023-05-18T20:23:31.308Z,29.60
2023-05-18T20:25:59.774Z,29.50
2023-05-18T20:28:27.949Z,29.50
2023-05-18T20:30:55.734Z,29.40
2023-05-18T20:33:24.107Z,29.40
2023-05-18T20:35:52.110Z,29.30
2023-05-18T20:38:20.504Z,29.30
2023-05-18T20:40:51.441Z,29.30
2023-05-18T20:43:19.039Z,29.30
2023-05-18T20:45:48.453Z,29.30
2023-05-18T20:48:25.217Z,29.20
2023-05-18T20:50:55.895Z,29.20
2023-05-18T20:53:23.565Z,29.20
2023-05-18T20:55:51.199Z,29.20
2023-05-18T20:58:18.880Z,29.20
2023-05-18T21:00:49.426Z,29.20
2023-05-18T21:03:18.613Z,29.20
2023-05-18T21:05:48.205Z,29.20
2023-05-18T21:08:17.480Z,29.20
2023-05-18T21:10:45.054Z,29.20
2023-05-18T21:13:12.661Z,29.20
2023-05-18T21:15:40.260Z,29.30
2023-05-18T21:18:07.889Z,29.30
2023-05-18T21:20:35.458Z,29.30
2023-05-18T21:23:03.947Z,29.30
2023-05-18T21:25:31.981Z,29.30
2023-05-18T21:28:00.333Z,29.30
2023-05-18T21:30:28.001Z,29.40
2023-05-18T21:32:56.251Z,29.40
2023-05-18T21:35:23.906Z,29.30
2023-05-18T21:37:51.492Z,29.30
2023-05-18T21:40:19.897Z,29.20
2023-05-18T21:42:48.375Z,29.20
2023-05-18T21:45:16.625Z,29.20
2023-05-18T21:47:44.287Z,29.20
2023-05-18T21:50:12.045Z,29.20
2023-05-18T21:52:40.393Z,29.20
2023-05-18T21:55:08.148Z,29.20
2023-05-18T21:57:35.931Z,29.20
2023-05-18T22:00:03.950Z,29.20
2023-05-18T22:02:32.333Z,29.10
2023-05-18T22:05:00.696Z,29.20
2023-05-18T22:07:28.229Z,29.10
2023-05-18T22:09:56.005Z,29.10
2023-05-18T22:12:23.828Z,29.10
2023-05-18T22:14:51.415Z,29.10
2023-05-18T22:17:19.077Z,29.20
2023-05-18T22:19:47.582Z,29.10
2023-05-18T22:22:29.311Z,29.20
2023-05-18T22:24:58.989Z,29.10
2023-05-18T22:27:27.505Z,29.10
2023-05-18T22:29:55.911Z,29.10
2023-05-18T22:32:23.799Z,29.10
2023-05-18T22:34:52.173Z,29.10
2023-05-18T22:37:19.746Z,29.10
2023-05-18T22:39:47.704Z,29.10
2023-05-18T22:42:15.251Z,29.10
2023-05-18T22:44:42.837Z,29.00
2023-05-18T22:47:11.407Z,29.00
2023-05-18T22:49:41.309Z,29.00
2023-05-18T22:52:08.874Z,29.00
2023-05-18T22:54:37.614Z,29.10
2023-05-18T22:57:05.388Z,29.10
2023-05-18T22:59:33.308Z,29.00
2023-05-18T23:02:00.972Z,29.10
2023-05-18T23:04:28.596Z,29.10
2023-05-18T23:06:57.245Z,29.10
2023-05-18T23:09:27.300Z,29.10
2023-05-18T23:11:56.797Z,29.10
2023-05-18T23:14:24.585Z,29.10
2023-05-18T23:16:53.724Z,29.10
2023-05-18T23:19:21.523Z,29.10
2023-05-18T23:21:49.165Z,29.10
2023-05-18T23:24:17.588Z,29.10
2023-05-18T23:26:46.033Z,29.20
2023-05-18T23:29:14.456Z,29.20
2023-05-18T23:31:42.050Z,29.20
2023-05-18T23:34:09.744Z,29.20
2023-05-18T23:36:39.096Z,29.20
2023-05-18T23:39:07.410Z,29.20
2023-05-18T23:41:36.381Z,29.20
2023-05-18T23:44:05.070Z,29.30
2023-05-18T23:46:32.790Z,29.20
2023-05-18T23:49:00.504Z,29.30
2023-05-18T23:51:30.980Z,29.30
2023-05-18T23:53:59.254Z,29.30
2023-05-18T23:56:27.729Z,29.30
2023-05-18T23:58:56.239Z,29.40
